createdAt,value
2023-02-28T00:00:44.584Z,9.90
2023-02-28T00:03:20.978Z,10.70
2023-02-28T00:05:52.192Z,10.30
2023-02-28T00:08:23.284Z,11.70
2023-02-28T00:10:54.176Z,10.70
2023-02-28T00:13:25.323Z,9.40
2023-02-28T00:16:03.135Z,10.00
2023-02-28T00:18:34.212Z,10.20
2023-02-28T00:21:05.431Z,9.90
2023-02-28T00:23:36.819Z,9.70
2023-02-28T00:26:08.001Z,10.30
2023-02-28T00:28:39.145Z,10.20
2023-02-28T00:31:10.243Z,8.90
2023-02-28T00:33:41.216Z,8.90
2023-02-28T00:36:13.591Z,9.30
2023-02-28T00:38:44.652Z,10.20
2023-02-28T00:41:15.888Z,10.10
2023-02-28T00:43:46.920Z,9.50
2023-02-28T00:46:17.933Z,9.20
2023-02-28T00:48:48.854Z,9.20
2023-02-28T00:51:19.830Z,8.70
2023-02-28T00:53:51.287Z,9.00
2023-02-28T00:56:22.369Z,10.30
2023-02-28T00:58:53.061Z,11.20
2023-02-28T01:01:23.909Z,9.70
2023-02-28T01:03:54.768Z,12.40
2023-02-28T01:06:25.717Z,11.60
2023-02-28T01:08:56.597Z,11.30
2023-02-28T01:11:27.748Z,11.20
2023-02-28T01:13:58.988Z,10.90
2023-02-28T01:16:29.677Z,11.70
2023-02-28T01:19:00.662Z,11.20
2023-02-28T01:21:31.782Z,10.60
2023-02-28T01:24:03.158Z,10.60
2023-02-28T01:26:33.951Z,12.70
2023-02-28T01:29:05.030Z,10.90
2023-02-28T01:31:36.284Z,11.80
2023-02-28T01:34:07.107Z,11.80
2023-02-28T01:36:39.077Z,10.90
2023-02-28T01:39:10.120Z,10.50
2023-02-28T01:41:41.248Z,10.80
2023-02-28T01:44:25.505Z,11.80
2023-02-28T01:46:56.536Z,11.40
2023-02-28T01:49:27.432Z,10.40
2023-02-28T01:51:58.838Z,11.70
2023-02-28T01:54:32.329Z,12.80
2023-02-28T01:57:04.306Z,10.70
2023-02-28T01:59:38.850Z,12.00
2023-02-28T02:02:10.714Z,12.10
2023-02-28T02:04:43.309Z,12.90
2023-02-28T02:07:15.274Z,11.90
2023-02-28T02:09:48.910Z,12.40
2023-02-28T02:12:25.811Z,12.40
2023-02-28T02:15:03.278Z,12.40
2023-02-28T02:17:37.079Z,11.20
2023-02-28T02:20:21.535Z,12.00
2023-02-28T02:23:10.517Z,12.70
2023-02-28T02:25:42.782Z,12.00
2023-02-28T02:28:21.185Z,13.70
2023-02-28T02:31:15.396Z,13.40
2023-02-28T02:33:52.555Z,13.40
2023-02-28T02:36:25.633Z,12.00
2023-02-28T02:39:01.492Z,12.90
2023-02-28T02:41:36.832Z,12.60
2023-02-28T02:44:14.496Z,10.30
2023-02-28T02:46:46.658Z,10.50
2023-02-28T02:49:18.901Z,10.30
2023-02-28T02:51:50.096Z,11.30
2023-02-28T02:54:23.300Z,10.90
2023-02-28T02:59:25.181Z,11.60
2023-02-28T03:01:58.055Z,11.40
2023-02-28T03:04:30.979Z,11.80
2023-02-28T03:07:03.201Z,12.70
2023-02-28T03:09:36.883Z,11.70
2023-02-28T03:12:09.190Z,11.50
2023-02-28T03:14:47.404Z,12.00
2023-02-28T03:17:33.100Z,12.40
2023-02-28T03:20:08.420Z,11.70
2023-02-28T03:22:50.757Z,11.60
2023-02-28T03:25:23.504Z,14.20
2023-02-28T03:27:58.177Z,13.40
2023-02-28T03:30:32.034Z,14.20
2023-02-28T03:33:07.191Z,14.00
2023-02-28T03:35:39.507Z,13.90
2023-02-28T03:38:15.024Z,13.70
2023-02-28T03:40:49.142Z,12.70
2023-02-28T03:43:25.009Z,14.70
2023-02-28T03:45:57.389Z,13.90
2023-02-28T03:48:29.870Z,13.50
2023-02-28T03:51:01.609Z,12.80
2023-02-28T03:53:34.169Z,14.00
2023-02-28T03:56:08.711Z,13.60
2023-02-28T03:58:41.645Z,12.20
2023-02-28T04:01:15.140Z,12.10
2023-02-28T04:03:46.182Z,16.40
2023-02-28T04:06:19.070Z,14.10
2023-02-28T04:08:50.187Z,15.00
2023-02-28T04:11:23.362Z,15.60
2023-02-28T04:13:54.220Z,14.40
2023-02-28T04:16:34.896Z,15.80
2023-02-28T04:19:07.945Z,15.40
2023-02-28T04:21:40.557Z,15.10
2023-02-28T04:24:15.416Z,15.60
2023-02-28T04:26:47.025Z,15.30
2023-02-28T04:29:21.051Z,14.00
2023-02-28T04:31:52.469Z,14.30
2023-02-28T04:34:24.799Z,14.60
2023-02-28T04:37:12.038Z,14.20
2023-02-28T04:39:44.540Z,16.00
2023-02-28T04:42:15.912Z,16.10
2023-02-28T04:44:46.653Z,16.00
2023-02-28T04:47:17.497Z,17.40
2023-02-28T04:49:48.420Z,16.80
2023-02-28T04:52:19.505Z,15.30
2023-02-28T04:54:50.492Z,14.60
2023-02-28T04:57:21.226Z,15.10
2023-02-28T04:59:52.065Z,15.00
2023-02-28T05:02:23.070Z,14.60
2023-02-28T05:04:54.247Z,15.90
2023-02-28T05:07:25.284Z,16.50
2023-02-28T05:09:56.334Z,16.30
2023-02-28T05:12:27.262Z,17.80
2023-02-28T05:14:58.206Z,18.20
2023-02-28T05:17:29.043Z,17.50
2023-02-28T05:20:09.966Z,18.20
2023-02-28T05:22:46.370Z,16.50
2023-02-28T05:25:19.380Z,16.40
2023-02-28T05:27:50.454Z,16.70
2023-02-28T05:30:21.469Z,15.80
2023-02-28T05:32:54.227Z,17.60
2023-02-28T05:35:25.680Z,19.30
2023-02-28T05:37:56.816Z,17.70
2023-02-28T05:40:27.964Z,14.70
2023-02-28T05:42:59.114Z,16.60
2023-02-28T05:45:29.959Z,16.70
2023-02-28T05:48:01.082Z,17.20
2023-02-28T05:50:32.017Z,15.30
2023-02-28T05:53:02.855Z,15.60
2023-02-28T05:55:33.797Z,15.50
2023-02-28T05:58:04.945Z,14.80
2023-02-28T06:00:35.882Z,15.30
2023-02-28T06:03:07.085Z,15.40
2023-02-28T06:05:39.730Z,15.00
2023-02-28T06:08:10.571Z,15.60
2023-02-28T06:10:41.335Z,16.60
2023-02-28T06:13:13.567Z,16.30
2023-02-28T06:15:44.370Z,17.20
2023-02-28T06:18:15.414Z,15.90
2023-02-28T06:20:46.012Z,15.50
2023-02-28T06:23:17.256Z,16.10
2023-02-28T06:25:48.892Z,16.00
2023-02-28T06:28:19.931Z,16.90
2023-02-28T06:30:50.696Z,19.30
2023-02-28T06:33:21.864Z,16.00
2023-02-28T06:35:53.994Z,18.10
2023-02-28T06:38:25.478Z,17.30
2023-02-28T06:40:59.708Z,17.90
2023-02-28T06:43:36.525Z,18.30
2023-02-28T06:46:14.842Z,19.30
2023-02-28T06:48:46.989Z,18.20
2023-02-28T06:51:18.720Z,20.30
2023-02-28T06:53:49.687Z,19.90
2023-02-28T06:56:21.532Z,20.40
2023-02-28T06:58:54.021Z,20.30
2023-02-28T07:01:25.699Z,20.70
2023-02-28T07:04:01.940Z,21.40
2023-02-28T07:06:33.614Z,23.20
2023-02-28T07:09:05.500Z,22.70
2023-02-28T07:11:36.546Z,22.10
2023-02-28T07:14:07.486Z,20.80
2023-02-28T07:16:38.826Z,21.00
2023-02-28T07:19:09.456Z,21.20
2023-02-28T07:21:40.603Z,21.30
2023-02-28T07:24:11.846Z,21.50
2023-02-28T07:26:47.706Z,20.20
2023-02-28T07:29:18.495Z,18.40
2023-02-28T07:31:49.338Z,19.50
2023-02-28T07:34:20.157Z,19.60
2023-02-28T07:36:54.939Z,18.20
2023-02-28T07:39:25.834Z,18.80
2023-02-28T07:41:57.433Z,18.50
2023-02-28T07:44:34.015Z,19.40
2023-02-28T07:47:05.406Z,18.60
2023-02-28T07:49:40.292Z,18.50
2023-02-28T07:52:12.352Z,16.70
2023-02-28T07:54:43.076Z,17.90
2023-02-28T07:57:14.638Z,18.30
2023-02-28T07:59:46.183Z,17.30
2023-02-28T08:02:18.366Z,17.40
2023-02-28T08:04:49.708Z,16.80
2023-02-28T08:07:21.247Z,16.40
2023-02-28T08:09:51.781Z,13.90
2023-02-28T08:12:23.098Z,14.40
2023-02-28T08:14:53.704Z,15.00
2023-02-28T08:17:24.499Z,15.80
2023-02-28T08:19:55.119Z,14.80
2023-02-28T08:22:26.094Z,13.70
2023-02-28T08:24:56.874Z,13.40
2023-02-28T08:27:32.949Z,13.20
2023-02-28T08:30:04.232Z,12.80
2023-02-28T08:32:36.049Z,13.50
2023-02-28T08:35:08.080Z,12.90
2023-02-28T08:37:39.079Z,13.70
2023-02-28T08:40:11.255Z,13.60
2023-02-28T08:42:42.410Z,12.80
2023-02-28T08:45:16.749Z,11.80
2023-02-28T08:47:47.724Z,10.20
2023-02-28T08:50:18.766Z,11.00
2023-02-28T08:52:49.706Z,10.00
2023-02-28T08:55:20.781Z,9.10
2023-02-28T08:57:51.919Z,8.70
2023-02-28T09:00:23.986Z,7.60
2023-02-28T09:02:56.017Z,7.90
2023-02-28T09:05:27.162Z,7.60
2023-02-28T09:07:57.984Z,7.40
2023-02-28T09:10:28.877Z,9.30
2023-02-28T09:12:59.598Z,8.10
2023-02-28T09:15:32.067Z,8.10
2023-02-28T09:18:02.776Z,7.80
2023-02-28T09:20:33.632Z,6.40
2023-02-28T09:23:04.586Z,8.40
2023-02-28T09:25:35.657Z,6.40
2023-02-28T09:28:07.064Z,7.20
2023-02-28T09:30:38.069Z,7.70
2023-02-28T09:33:08.699Z,8.80
2023-02-28T09:35:39.747Z,6.80
2023-02-28T09:38:11.318Z,6.90
2023-02-28T09:40:43.768Z,7.10
2023-02-28T09:43:16.918Z,7.50
2023-02-28T09:45:50.315Z,7.50
2023-02-28T09:48:24.414Z,8.10
2023-02-28T09:51:00.101Z,7.30
2023-02-28T09:53:35.124Z,8.00
2023-02-28T09:56:09.259Z,6.90
2023-02-28T09:58:44.494Z,7.80
2023-02-28T10:01:22.093Z,8.50
2023-02-28T10:03:58.302Z,7.40
2023-02-28T10:06:37.108Z,9.00
2023-02-28T10:09:11.781Z,8.90
2023-02-28T10:11:44.079Z,8.50
2023-02-28T10:14:16.761Z,8.00
2023-02-28T10:16:53.176Z,8.90
2023-02-28T10:19:26.583Z,9.50
2023-02-28T10:21:59.145Z,9.80
2023-02-28T10:24:33.131Z,9.40
2023-02-28T10:27:08.558Z,8.00
2023-02-28T10:29:42.018Z,8.00
2023-02-28T10:34:42.184Z,8.00
2023-02-28T10:37:13.970Z,9.40
2023-02-28T10:39:46.946Z,9.60
2023-02-28T10:42:28.240Z,9.60
2023-02-28T10:45:12.857Z,8.60
2023-02-28T10:47:53.901Z,9.40
2023-02-28T10:50:44.737Z,9.40
2023-02-28T10:53:31.934Z,9.30
2023-02-28T10:56:04.989Z,9.40
2023-02-28T10:58:48.894Z,8.90
2023-02-28T11:01:21.748Z,10.60
2023-02-28T11:03:53.763Z,9.50
2023-02-28T11:06:25.953Z,9.10
2023-02-28T11:08:57.816Z,9.30
2023-02-28T11:11:30.732Z,9.40
2023-02-28T11:14:08.302Z,10.60
2023-02-28T11:16:39.880Z,8.70
2023-02-28T11:19:20.182Z,9.10
2023-02-28T11:21:54.848Z,10.60
2023-02-28T11:24:27.328Z,8.90
2023-02-28T11:26:58.938Z,8.60
2023-02-28T11:29:31.922Z,8.90
2023-02-28T11:32:07.599Z,8.90
2023-02-28T11:34:39.133Z,9.20
2023-02-28T11:37:13.806Z,9.40
2023-02-28T11:39:45.111Z,11.50
2023-02-28T11:42:21.462Z,9.90
2023-02-28T11:45:01.406Z,8.10
2023-02-28T11:47:35.443Z,9.90
2023-02-28T11:50:14.130Z,9.10
2023-02-28T11:52:48.007Z,8.80
2023-02-28T11:55:22.161Z,8.70
2023-02-28T11:58:09.507Z,9.00
2023-02-28T12:00:49.705Z,9.60
2023-02-28T12:03:26.183Z,8.70
2023-02-28T12:06:03.210Z,8.60
2023-02-28T12:08:41.778Z,8.80
2023-02-28T12:11:19.566Z,9.30
2023-02-28T12:13:52.891Z,8.10
2023-02-28T12:16:48.175Z,8.60
2023-02-28T12:19:26.407Z,8.90
2023-02-28T12:22:22.250Z,9.10
2023-02-28T12:25:04.276Z,9.00
2023-02-28T12:27:36.638Z,8.90
2023-02-28T12:30:16.233Z,8.50
2023-02-28T12:32:48.841Z,8.80
2023-02-28T12:35:21.951Z,8.20
2023-02-28T12:37:57.418Z,8.60
2023-02-28T12:40:30.632Z,7.80
2023-02-28T12:43:02.994Z,8.30
2023-02-28T12:45:42.043Z,9.10
2023-02-28T12:48:16.215Z,9.00
2023-02-28T12:50:51.828Z,10.70
2023-02-28T12:53:27.946Z,8.40
2023-02-28T12:56:05.565Z,9.20
2023-02-28T12:58:38.599Z,8.80
2023-02-28T13:01:16.978Z,9.40
2023-02-28T13:04:04.237Z,8.90
2023-02-28T13:06:57.796Z,8.80
2023-02-28T13:09:30.747Z,9.80
2023-02-28T13:12:01.453Z,9.30
2023-02-28T13:14:37.787Z,9.60
2023-02-28T13:17:14.348Z,8.60
2023-02-28T13:19:46.225Z,9.20
2023-02-28T13:22:21.357Z,8.10
2023-02-28T13:24:55.366Z,9.50
2023-02-28T13:27:36.271Z,8.60
2023-02-28T13:30:20.643Z,8.60
2023-02-28T13:33:11.896Z,8.40
2023-02-28T13:35:49.669Z,8.20
2023-02-28T13:38:33.762Z,8.10
2023-02-28T13:41:27.176Z,7.90
2023-02-28T13:44:05.821Z,7.30
2023-02-28T13:46:38.550Z,8.20
2023-02-28T13:49:29.203Z,8.00
2023-02-28T13:52:15.412Z,7.60
2023-02-28T13:54:53.768Z,8.60
2023-02-28T13:57:27.951Z,7.90
2023-02-28T14:00:06.611Z,8.10
2023-02-28T14:07:52.841Z,9.10
2023-02-28T14:10:31.468Z,8.00
2023-02-28T14:13:03.977Z,8.20
2023-02-28T14:15:47.952Z,8.20
2023-02-28T14:18:22.082Z,8.00
2023-02-28T14:20:55.828Z,8.10
2023-02-28T14:23:36.511Z,8.00
2023-02-28T14:26:15.062Z,7.90
2023-02-28T14:28:52.330Z,9.20
2023-02-28T14:31:27.648Z,8.90
2023-02-28T14:34:16.153Z,8.20
2023-02-28T14:36:47.338Z,8.20
2023-02-28T14:39:19.604Z,8.00
2023-02-28T14:41:51.057Z,7.90
2023-02-28T14:44:22.797Z,7.70
2023-02-28T14:46:55.945Z,8.60
2023-02-28T14:49:29.913Z,8.40
2023-02-28T14:52:10.661Z,8.20
2023-02-28T14:54:41.937Z,8.20
2023-02-28T14:57:24.030Z,8.00
2023-02-28T15:00:01.646Z,8.10
2023-02-28T15:02:33.954Z,7.30
2023-02-28T15:05:14.000Z,8.10
2023-02-28T15:07:45.132Z,7.90
2023-02-28T15:10:20.001Z,9.10
2023-02-28T15:12:54.962Z,8.30
2023-02-28T15:15:35.921Z,8.30
2023-02-28T15:18:16.699Z,8.60
2023-02-28T15:20:48.133Z,8.60
2023-02-28T15:23:19.630Z,7.90
2023-02-28T15:25:51.001Z,9.10
2023-02-28T15:28:22.863Z,8.10
2023-02-28T15:30:55.673Z,8.60
2023-02-28T15:33:27.677Z,9.20
2023-02-28T15:36:15.776Z,10.40
2023-02-28T15:38:46.510Z,9.90
2023-02-28T15:41:27.196Z,9.10
2023-02-28T15:44:15.627Z,9.50
2023-02-28T15:46:55.679Z,9.30
2023-02-28T15:49:26.538Z,10.00
2023-02-28T15:51:58.796Z,10.60
2023-02-28T15:54:31.384Z,10.20
2023-02-28T15:57:05.573Z,8.40
2023-02-28T15:59:37.638Z,10.00
2023-02-28T16:02:16.931Z,10.00
2023-02-28T16:05:01.662Z,11.70
2023-02-28T16:07:37.476Z,10.20
2023-02-28T16:10:09.352Z,12.40
2023-02-28T16:12:41.292Z,10.60
2023-02-28T16:15:20.077Z,10.80
2023-02-28T16:17:50.906Z,9.60
2023-02-28T16:20:22.634Z,10.20
2023-02-28T16:22:53.527Z,10.50
2023-02-28T16:25:25.914Z,10.10
2023-02-28T16:27:58.705Z,10.30
2023-02-28T16:30:32.585Z,9.50
2023-02-28T16:33:03.319Z,10.70
2023-02-28T16:35:34.401Z,9.40
2023-02-28T16:38:05.239Z,11.00
2023-02-28T16:40:37.807Z,10.40
2023-02-28T16:43:10.710Z,9.20
2023-02-28T16:45:42.531Z,9.80
2023-02-28T16:48:16.180Z,9.90
2023-02-28T16:50:47.225Z,10.40
2023-02-28T16:53:18.352Z,10.50
2023-02-28T16:55:49.535Z,11.10
2023-02-28T16:58:22.994Z,10.30
2023-02-28T17:00:54.223Z,10.00
2023-02-28T17:03:33.868Z,11.00
2023-02-28T17:06:05.017Z,12.20
2023-02-28T17:08:38.141Z,10.00
2023-02-28T17:11:08.902Z,11.50
2023-02-28T17:13:42.479Z,11.30
2023-02-28T17:16:15.829Z,11.30
2023-02-28T17:18:47.068Z,11.30
2023-02-28T17:21:17.966Z,10.90
2023-02-28T17:23:49.149Z,14.70
2023-02-28T17:26:22.298Z,11.40
2023-02-28T17:31:23.508Z,13.60
2023-02-28T17:33:55.670Z,12.60
2023-02-28T17:36:29.030Z,11.80
2023-02-28T17:39:00.403Z,12.50
2023-02-28T17:41:31.550Z,12.00
2023-02-28T17:44:02.696Z,11.50
2023-02-28T17:46:33.948Z,13.00
2023-02-28T17:49:05.188Z,12.70
2023-02-28T17:51:35.922Z,11.90
2023-02-28T17:54:07.808Z,12.00
2023-02-28T17:56:38.637Z,12.10
2023-02-28T17:59:11.648Z,13.70
2023-02-28T18:01:42.934Z,18.90
2023-02-28T18:04:13.994Z,18.10
2023-02-28T18:06:51.128Z,20.40
2023-02-28T18:09:23.265Z,15.90
2023-02-28T18:11:55.913Z,15.80
2023-02-28T18:14:27.563Z,15.70
2023-02-28T18:16:58.835Z,14.20
2023-02-28T18:19:29.797Z,13.00
2023-02-28T18:22:00.928Z,13.40
2023-02-28T18:24:32.044Z,12.90
2023-02-28T18:27:02.874Z,12.30
2023-02-28T18:29:34.538Z,14.20
2023-02-28T18:32:06.272Z,12.10
2023-02-28T18:34:37.294Z,12.40
2023-02-28T18:37:08.116Z,13.60
2023-02-28T18:39:38.734Z,13.00
2023-02-28T18:42:10.269Z,12.40
2023-02-28T18:44:45.929Z,13.40
2023-02-28T18:47:17.038Z,12.70
2023-02-28T18:49:48.277Z,14.50
2023-02-28T18:52:19.511Z,13.20
2023-02-28T18:54:50.560Z,13.40
2023-02-28T18:57:21.803Z,13.00
2023-02-28T18:59:52.806Z,12.40
2023-02-28T19:02:23.896Z,12.90
2023-02-28T19:04:55.099Z,11.90
2023-02-28T19:07:26.007Z,13.60
2023-02-28T19:09:56.850Z,12.80
2023-02-28T19:12:28.254Z,11.90
2023-02-28T19:14:59.228Z,12.80
2023-02-28T19:17:30.385Z,13.40
2023-02-28T19:20:05.618Z,13.00
2023-02-28T19:22:41.531Z,13.60
2023-02-28T19:25:17.777Z,12.60
2023-02-28T19:27:49.328Z,13.70
2023-02-28T19:30:20.746Z,14.60
2023-02-28T19:32:52.181Z,17.50
2023-02-28T19:35:23.463Z,16.50
2023-02-28T19:37:59.973Z,15.10
2023-02-28T19:40:30.992Z,13.80
2023-02-28T19:43:04.234Z,16.70
2023-02-28T19:45:37.091Z,16.00
2023-02-28T19:48:10.263Z,17.10
2023-02-28T19:50:42.275Z,17.70
2023-02-28T19:53:13.257Z,18.30
2023-02-28T19:55:44.297Z,21.20
2023-02-28T19:58:15.378Z,21.70
2023-02-28T20:00:46.081Z,19.70
2023-02-28T20:03:18.802Z,17.10
2023-02-28T20:05:49.820Z,16.40
2023-02-28T20:08:20.729Z,14.30
2023-02-28T20:10:51.794Z,14.90
2023-02-28T20:13:28.110Z,19.70
2023-02-28T20:16:01.870Z,15.90
2023-02-28T20:18:37.144Z,15.70
2023-02-28T20:21:14.062Z,15.90
2023-02-28T20:23:50.488Z,14.70
2023-02-28T20:26:25.971Z,13.60
2023-02-28T20:29:00.802Z,14.10
2023-02-28T20:31:37.187Z,13.80
2023-02-28T20:34:08.797Z,13.90
2023-02-28T20:36:39.855Z,20.00
2023-02-28T20:39:11.450Z,20.00
2023-02-28T20:41:42.350Z,18.70
2023-02-28T20:44:14.898Z,17.70
2023-02-28T20:46:49.872Z,16.40
2023-02-28T20:49:21.146Z,18.70
2023-02-28T20:51:51.836Z,21.30
2023-02-28T20:54:22.841Z,22.00
2023-02-28T20:56:53.310Z,23.00
2023-02-28T20:59:29.560Z,22.00
2023-02-28T21:02:00.610Z,21.60
2023-02-28T21:04:36.966Z,22.20
2023-02-28T21:07:12.280Z,22.50
2023-02-28T21:09:43.454Z,20.00
2023-02-28T21:12:14.493Z,22.10
2023-02-28T21:14:49.729Z,25.90
2023-02-28T21:17:21.225Z,26.70
2023-02-28T21:19:51.928Z,26.00
2023-02-28T21:22:22.971Z,27.40
2023-02-28T21:24:53.692Z,26.80
2023-02-28T21:27:24.832Z,26.60
2023-02-28T21:29:55.633Z,23.60
2023-02-28T21:32:27.099Z,25.70
2023-02-28T21:34:58.744Z,26.70
2023-02-28T21:37:30.362Z,26.50
2023-02-28T21:40:01.061Z,26.80
2023-02-28T21:42:32.667Z,27.40
2023-02-28T21:45:03.699Z,25.90
2023-02-28T21:47:35.130Z,27.00
2023-02-28T21:50:07.289Z,26.20
2023-02-28T21:52:38.603Z,29.40
2023-02-28T21:55:10.287Z,25.10
2023-02-28T21:57:41.570Z,26.30
2023-02-28T22:00:17.015Z,28.40
2023-02-28T22:02:48.528Z,25.90
2023-02-28T22:05:19.831Z,28.00
2023-02-28T22:07:50.876Z,29.20
2023-02-28T22:10:21.753Z,29.60
2023-02-28T22:12:52.868Z,32.60
2023-02-28T22:15:24.313Z,31.70
2023-02-28T22:17:55.255Z,30.00
2023-02-28T22:20:25.773Z,31.60
2023-02-28T22:22:56.745Z,27.30
2023-02-28T22:25:27.877Z,26.70
2023-02-28T22:27:58.992Z,30.30
2023-02-28T22:30:29.755Z,27.80
2023-02-28T22:33:00.652Z,29.30
2023-02-28T22:35:31.396Z,30.80
2023-02-28T22:38:02.190Z,29.70
2023-02-28T22:40:34.284Z,30.10
2023-02-28T22:43:06.844Z,23.60
2023-02-28T22:45:38.461Z,21.40
2023-02-28T22:48:11.430Z,21.70
2023-02-28T22:50:42.024Z,20.30
2023-02-28T22:53:12.802Z,22.00
2023-02-28T22:55:43.334Z,25.00
2023-02-28T22:58:14.199Z,28.40
2023-02-28T23:00:44.835Z,23.60
2023-02-28T23:03:16.351Z,24.80
2023-02-28T23:05:47.030Z,24.60
2023-02-28T23:08:22.613Z,28.50
2023-02-28T23:10:53.550Z,26.70
2023-02-28T23:13:24.799Z,30.00
2023-02-28T23:15:55.635Z,32.70
2023-02-28T23:18:26.492Z,32.30
2023-02-28T23:20:58.752Z,33.50
2023-02-28T23:23:29.678Z,29.50
2023-02-28T23:26:00.388Z,31.20
2023-02-28T23:28:31.802Z,30.30
2023-02-28T23:31:04.716Z,30.70
2023-02-28T23:33:35.753Z,35.70
2023-02-28T23:36:11.554Z,36.20
2023-02-28T23:38:43.395Z,35.80
2023-02-28T23:41:14.624Z,37.30
2023-02-28T23:43:45.775Z,36.00
2023-02-28T23:46:17.872Z,35.10
2023-02-28T23:48:48.645Z,34.90
2023-02-28T23:51:20.631Z,32.80
2023-02-28T23:53:52.563Z,33.70
2023-02-28T23:56:23.979Z,35.00
2023-02-28T23:58:56.003Z,35.80
